Time;durP1;ratioP1;P1;durP2;ratioP2;P2;SDS_P1;SDS_P2;PMS_P1;PMS_P2;Temp;Humidity;BMP_temperature;BMP_pressure;BME280_temperature;BME280_humidity;BME280_pressure;Samples;Min_cycle;Max_cycle;Signal;HPM_P1;HPM_P2
2021/09/03 00:02:03;;;;;;;17.13;7.72;;;14.40;99.90;;;;;;4900937;29;20033;-86
2021/09/03 00:04:29;;;;;;;16.67;7.63;;;14.40;99.90;;;;;;4900839;29;20036;-86
2021/09/03 00:06:54;;;;;;;21.25;8.43;;;14.40;99.90;;;;;;4897821;29;20027;-87
2021/09/03 00:09:20;;;;;;;17.77;9.02;;;14.40;99.90;;;;;;4899710;29;20028;-86
2021/09/03 00:11:46;;;;;;;22.48;8.18;;;14.40;99.90;;;;;;4900745;29;20382;-86
2021/09/03 00:14:11;;;;;;;19.58;9.00;;;14.40;99.90;;;;;;4899353;29;20482;-87
2021/09/03 00:16:37;;;;;;;23.52;8.55;;;14.40;99.90;;;;;;4900474;29;20178;-86
2021/09/03 00:19:04;;;;;;;19.85;8.40;;;14.30;99.90;;;;;;4899161;29;20057;-89
2021/09/03 00:21:30;;;;;;;22.58;9.52;;;14.30;99.90;;;;;;4900348;29;20080;-86
2021/09/03 00:23:56;;;;;;;21.02;9.75;;;14.30;99.90;;;;;;4899020;29;20120;-86
2021/09/03 00:26:21;;;;;;;20.13;9.63;;;14.30;99.90;;;;;;4900382;29;20020;-87
2021/09/03 00:28:47;;;;;;;19.38;10.05;;;14.20;99.90;;;;;;4900155;29;20029;-88
2021/09/03 00:31:13;;;;;;;21.25;8.95;;;14.20;99.90;;;;;;4901519;29;20036;-86
2021/09/03 00:33:38;;;;;;;19.75;9.25;;;14.10;99.90;;;;;;4899790;29;20111;-86
2021/09/03 00:36:04;;;;;;;20.05;9.40;;;14.10;99.90;;;;;;4897204;29;20020;-86
2021/09/03 00:38:30;;;;;;;27.17;10.32;;;14.10;99.90;;;;;;4881262;29;20044;-87
2021/09/03 00:40:55;;;;;;;27.20;10.07;;;14.10;99.90;;;;;;4864758;29;20029;-87
2021/09/03 00:43:21;;;;;;;19.10;10.05;;;14.00;99.90;;;;;;4864842;29;20131;-87
2021/09/03 00:45:46;;;;;;;20.42;10.13;;;14.00;99.90;;;;;;4864776;29;20080;-87
2021/09/03 00:48:12;;;;;;;19.10;9.90;;;14.00;99.90;;;;;;4864496;29;20403;-86
2021/09/03 00:50:40;;;;;;;22.85;9.68;;;14.00;99.90;;;;;;4854630;29;20036;-86
2021/09/03 00:53:05;;;;;;;29.98;10.00;;;14.00;99.90;;;;;;4855617;29;20032;-86
2021/09/03 00:55:31;;;;;;;20.90;9.65;;;14.00;99.90;;;;;;4853503;29;20387;-87
2021/09/03 00:57:57;;;;;;;16.88;8.77;;;14.00;99.90;;;;;;4853688;29;20077;-87
2021/09/03 01:00:22;;;;;;;20.20;10.10;;;14.00;99.90;;;;;;4854762;29;20030;-87
2021/09/03 01:02:48;;;;;;;24.75;10.07;;;14.00;99.90;;;;;;4856198;29;20372;-87
2021/09/03 01:05:14;;;;;;;24.42;10.02;;;13.90;99.90;;;;;;4857061;29;20467;-87
2021/09/03 01:07:40;;;;;;;21.45;10.70;;;14.00;99.90;;;;;;4853983;29;20120;-87
2021/09/03 01:10:06;;;;;;;28.35;10.73;;;14.00;99.90;;;;;;4854755;29;20073;-87
2021/09/03 01:12:32;;;;;;;17.45;9.32;;;13.90;99.90;;;;;;4855432;29;20033;-87
2021/09/03 01:14:57;;;;;;;18.10;9.15;;;13.90;99.90;;;;;;4853721;29;20393;-87
2021/09/03 01:17:23;;;;;;;21.48;9.50;;;13.90;99.90;;;;;;4856215;29;20141;-87
2021/09/03 01:19:50;;;;;;;19.55;9.60;;;13.80;99.90;;;;;;4856216;29;20464;-87
2021/09/03 01:22:22;;;;;;;19.50;9.73;;;13.80;99.90;;;;;;4856921;29;20028;-87
2021/09/03 01:24:48;;;;;;;19.40;9.07;;;13.80;99.90;;;;;;4855765;29;20033;-86
2021/09/03 01:27:13;;;;;;;22.45;9.02;;;13.80;99.90;;;;;;4854933;29;20037;-87
2021/09/03 01:29:39;;;;;;;20.40;9.55;;;13.80;99.90;;;;;;4853781;29;20029;-86
2021/09/03 01:32:05;;;;;;;18.75;8.48;;;13.80;99.90;;;;;;4854095;29;20074;-87
2021/09/03 01:34:31;;;;;;;19.63;9.18;;;13.70;99.90;;;;;;4855107;29;20483;-87
2021/09/03 01:36:56;;;;;;;21.63;8.65;;;13.80;99.90;;;;;;4852897;29;20108;-87
2021/09/03 01:39:22;;;;;;;18.80;10.00;;;13.80;99.90;;;;;;4854542;29;20061;-87
2021/09/03 01:41:48;;;;;;;18.95;8.70;;;13.80;99.90;;;;;;4856143;29;20242;-87
2021/09/03 01:44:13;;;;;;;17.38;8.05;;;13.80;99.90;;;;;;4853579;29;20044;-88
2021/09/03 01:46:39;;;;;;;20.40;8.63;;;13.80;99.90;;;;;;4855234;29;20032;-88
2021/09/03 01:49:05;;;;;;;15.75;7.57;;;13.80;99.90;;;;;;4855629;29;20029;-87
2021/09/03 01:51:31;;;;;;;21.25;7.82;;;13.70;99.90;;;;;;4871272;29;20032;-87
2021/09/03 01:53:56;;;;;;;16.73;7.97;;;13.80;99.90;;;;;;4869526;29;20471;-87
2021/09/03 01:56:22;;;;;;;15.98;7.30;;;13.70;99.90;;;;;;4854237;29;20791;-88
2021/09/03 01:58:47;;;;;;;20.98;7.30;;;13.70;99.90;;;;;;4854142;29;20468;-88
2021/09/03 02:01:13;;;;;;;18.40;7.85;;;13.70;99.90;;;;;;4853133;29;20132;-87
2021/09/03 02:03:39;;;;;;;22.45;7.53;;;13.70;99.90;;;;;;4877649;29;20538;-88
2021/09/03 02:06:04;;;;;;;15.90;7.72;;;13.70;99.90;;;;;;4865214;29;20089;-88
2021/09/03 02:08:31;;;;;;;19.27;7.50;;;13.70;99.90;;;;;;4863402;29;20044;-88
2021/09/03 02:10:57;;;;;;;18.20;8.15;;;13.70;99.90;;;;;;4863043;29;20033;-88
2021/09/03 02:13:23;;;;;;;15.60;8.10;;;13.60;99.90;;;;;;4863069;29;20021;-88
2021/09/03 02:15:49;;;;;;;19.05;8.35;;;13.60;99.90;;;;;;4879654;29;20036;-88
2021/09/03 02:18:15;;;;;;;19.55;7.93;;;13.60;99.90;;;;;;4862864;29;20161;-88
2021/09/03 02:20:41;;;;;;;18.95;7.72;;;13.60;99.90;;;;;;4863355;29;20025;-87
2021/09/03 02:23:07;;;;;;;17.67;8.15;;;13.60;99.90;;;;;;4864018;29;20048;-87
2021/09/03 02:25:33;;;;;;;17.40;7.40;;;13.60;99.90;;;;;;4863422;29;20029;-88
2021/09/03 02:27:59;;;;;;;17.08;7.57;;;13.50;99.90;;;;;;4863426;29;20116;-88
2021/09/03 02:30:25;;;;;;;17.13;7.85;;;13.50;99.90;;;;;;4862333;29;20544;-87
2021/09/03 02:32:51;;;;;;;10.90;6.68;;;13.50;99.90;;;;;;4863640;29;20037;-88
2021/09/03 02:35:17;;;;;;;15.60;7.03;;;13.50;99.90;;;;;;4862913;29;20394;-88
2021/09/03 02:37:43;;;;;;;16.08;6.95;;;13.50;99.90;;;;;;4887672;29;20044;-88
2021/09/03 02:40:09;;;;;;;15.77;6.32;;;13.50;99.90;;;;;;4897404;29;20033;-88
2021/09/03 02:42:35;;;;;;;15.70;7.28;;;13.40;99.90;;;;;;4897015;29;20462;-88
2021/09/03 02:45:01;;;;;;;14.88;6.28;;;13.50;99.90;;;;;;4897123;29;20025;-88
2021/09/03 02:47:26;;;;;;;17.52;6.93;;;13.50;99.90;;;;;;4897002;29;20558;-88
2021/09/03 02:49:52;;;;;;;14.35;6.85;;;13.50;99.90;;;;;;4897309;29;20497;-87
2021/09/03 02:52:18;;;;;;;17.02;7.60;;;13.40;99.90;;;;;;4897051;29;20044;-88
2021/09/03 02:54:43;;;;;;;28.60;7.28;;;13.40;99.90;;;;;;4897057;29;20046;-88
2021/09/03 02:57:09;;;;;;;13.98;6.10;;;13.50;99.90;;;;;;4897154;29;20040;-87
2021/09/03 02:59:34;;;;;;;17.55;6.97;;;13.40;99.90;;;;;;4896777;29;20501;-87
2021/09/03 03:02:00;;;;;;;17.92;7.35;;;13.50;99.90;;;;;;4897044;29;20021;-88
2021/09/03 03:04:26;;;;;;;19.60;8.93;;;13.40;99.90;;;;;;4896805;29;20032;-88
2021/09/03 03:06:51;;;;;;;13.75;7.40;;;13.40;99.90;;;;;;4897094;29;20474;-88
2021/09/03 03:09:17;;;;;;;15.68;8.73;;;13.40;99.90;;;;;;4896919;29;20043;-88
2021/09/03 03:11:43;;;;;;;16.15;7.38;;;13.40;99.90;;;;;;4896902;29;20020;-87
2021/09/03 03:14:15;;;;;;;20.17;9.15;;;13.30;99.90;;;;;;4896604;29;20489;-87
2021/09/03 03:16:41;;;;;;;27.23;8.07;;;13.40;99.90;;;;;;4896290;29;20039;-87
2021/09/03 03:19:06;;;;;;;16.15;7.70;;;13.40;99.90;;;;;;4881085;29;20025;-87
2021/09/03 03:21:32;;;;;;;17.15;7.40;;;13.40;99.90;;;;;;4897140;29;20085;-88
2021/09/03 03:23:58;;;;;;;15.48;8.32;;;13.40;99.90;;;;;;4896529;29;20043;-88
2021/09/03 03:26:23;;;;;;;17.15;9.02;;;13.40;99.90;;;;;;4896432;29;20024;-88
2021/09/03 03:28:49;;;;;;;17.48;9.45;;;13.30;99.90;;;;;;4896338;29;20084;-87
2021/09/03 03:31:15;;;;;;;21.33;8.95;;;13.30;99.90;;;;;;4896539;29;20024;-87
2021/09/03 03:33:40;;;;;;;16.42;8.15;;;13.30;99.90;;;;;;4897958;29;20017;-87
2021/09/03 03:36:06;;;;;;;23.00;9.13;;;13.30;99.90;;;;;;4894854;29;20044;-88
2021/09/03 03:38:31;;;;;;;18.88;8.52;;;13.30;99.90;;;;;;4863714;29;20037;-88
2021/09/03 03:40:57;;;;;;;18.25;9.63;;;13.30;99.90;;;;;;4863452;29;20423;-87
2021/09/03 03:43:23;;;;;;;17.50;8.50;;;13.30;99.90;;;;;;4865569;29;20036;-88
2021/09/03 03:45:48;;;;;;;17.95;8.35;;;13.30;99.90;;;;;;4865985;29;20059;-88
2021/09/03 03:48:14;;;;;;;14.80;7.32;;;13.30;99.90;;;;;;4866035;29;20547;-88
2021/09/03 03:50:40;;;;;;;13.70;7.10;;;13.30;99.90;;;;;;4857356;29;20073;-87
2021/09/03 03:53:05;;;;;;;12.82;6.93;;;13.20;99.90;;;;;;4856469;29;20033;-89
2021/09/03 03:55:31;;;;;;;16.17;6.85;;;13.30;99.90;;;;;;4855602;29;20025;-88
2021/09/03 03:57:57;;;;;;;14.85;7.68;;;13.20;99.90;;;;;;4873794;29;20022;-88
2021/09/03 04:00:22;;;;;;;17.70;7.13;;;13.20;99.90;;;;;;4856779;29;20021;-88
2021/09/03 04:02:48;;;;;;;12.25;5.75;;;13.20;99.90;;;;;;4856161;29;20045;-88
2021/09/03 04:05:14;;;;;;;12.82;6.82;;;13.20;99.90;;;;;;4855343;29;20029;-87
2021/09/03 04:07:39;;;;;;;12.10;6.60;;;13.20;99.90;;;;;;4856869;29;20068;-87
2021/09/03 04:10:05;;;;;;;14.48;5.93;;;13.20;99.90;;;;;;4856948;29;20502;-87
2021/09/03 04:12:31;;;;;;;13.68;6.47;;;13.20;99.90;;;;;;4856201;29;20034;-87
2021/09/03 04:14:57;;;;;;;14.13;7.18;;;13.20;99.90;;;;;;4854429;29;20522;-87
2021/09/03 04:17:23;;;;;;;12.23;7.10;;;13.20;99.90;;;;;;4854088;29;20027;-87
2021/09/03 04:19:48;;;;;;;11.98;7.15;;;13.20;99.90;;;;;;4855507;29;20491;-86
2021/09/03 04:22:14;;;;;;;17.27;8.63;;;13.20;99.90;;;;;;4854479;29;20069;-88
2021/09/03 04:24:39;;;;;;;15.98;9.00;;;13.20;99.90;;;;;;4857379;29;20026;-87
2021/09/03 04:27:05;;;;;;;18.70;10.18;;;13.20;99.90;;;;;;4856827;29;20017;-88
2021/09/03 04:29:31;;;;;;;19.73;9.02;;;13.20;99.90;;;;;;4854980;29;20559;-86
2021/09/03 04:31:57;;;;;;;16.95;8.88;;;13.10;99.90;;;;;;4854242;29;20021;-87
2021/09/03 04:34:22;;;;;;;15.52;7.32;;;13.10;99.90;;;;;;4856321;29;20028;-87
2021/09/03 04:36:48;;;;;;;16.55;7.78;;;13.10;99.90;;;;;;4861890;29;20041;-86
2021/09/03 04:39:13;;;;;;;17.92;7.93;;;13.10;99.90;;;;;;4875399;29;20035;-86
2021/09/03 04:41:39;;;;;;;16.08;8.27;;;13.10;99.90;;;;;;4873089;29;20021;-87
2021/09/03 04:44:05;;;;;;;16.95;8.00;;;13.00;99.90;;;;;;4874173;29;20088;-87
2021/09/03 04:46:31;;;;;;;15.52;8.45;;;13.00;99.90;;;;;;4874257;29;20077;-87
2021/09/03 04:48:56;;;;;;;17.35;7.82;;;13.10;99.90;;;;;;4872328;29;20055;-86
2021/09/03 04:51:22;;;;;;;22.05;9.10;;;13.10;99.90;;;;;;4874015;29;20391;-86
2021/09/03 04:53:47;;;;;;;15.40;8.57;;;13.10;99.90;;;;;;4889689;29;20491;-86
2021/09/03 04:56:13;;;;;;;19.70;7.80;;;13.00;99.90;;;;;;4872533;29;20021;-87
2021/09/03 04:58:39;;;;;;;15.05;7.63;;;13.10;99.90;;;;;;4871841;29;20033;-88
2021/09/03 05:01:05;;;;;;;19.00;7.32;;;13.00;99.90;;;;;;4873108;29;20024;-89
2021/09/03 05:03:30;;;;;;;17.23;7.25;;;13.00;99.90;;;;;;4871355;29;20037;-88
2021/09/03 05:05:56;;;;;;;16.40;8.40;;;13.00;99.90;;;;;;4873648;29;20148;-88
2021/09/03 05:08:23;;;;;;;20.75;8.98;;;13.00;99.90;;;;;;4872185;29;20028;-88
2021/09/03 05:10:49;;;;;;;19.25;9.38;;;13.00;99.90;;;;;;4889054;29;20039;-87
2021/09/03 05:13:14;;;;;;;22.05;9.63;;;13.00;99.90;;;;;;4874255;29;20119;-87
2021/09/03 05:15:43;;;;;;;20.13;9.45;;;13.00;99.90;;;;;;4883111;29;20043;-87
2021/09/03 05:18:09;;;;;;;25.98;9.82;;;13.00;99.90;;;;;;4882321;29;20040;-88
2021/09/03 05:20:35;;;;;;;17.30;9.38;;;13.00;99.90;;;;;;4882425;29;20033;-87
2021/09/03 05:23:00;;;;;;;18.40;10.32;;;13.00;99.90;;;;;;4882186;29;20032;-87
2021/09/03 05:25:26;;;;;;;21.50;10.77;;;13.00;99.90;;;;;;4882127;29;20028;-87
2021/09/03 05:27:52;;;;;;;20.95;9.70;;;13.00;99.90;;;;;;4882898;29;20025;-87
2021/09/03 05:30:18;;;;;;;22.05;9.70;;;13.00;99.90;;;;;;4882573;29;20025;-88
2021/09/03 05:32:44;;;;;;;20.85;10.82;;;13.00;99.90;;;;;;4882759;29;20096;-88
2021/09/03 05:35:10;;;;;;;20.70;9.48;;;13.00;99.90;;;;;;4885389;29;20707;-88
2021/09/03 05:37:37;;;;;;;19.02;10.10;;;13.00;99.90;;;;;;4899838;29;20051;-87
2021/09/03 05:40:05;;;;;;;26.05;11.65;;;13.00;99.90;;;;;;4904929;29;20132;-87
2021/09/03 05:42:31;;;;;;;19.92;9.68;;;13.00;99.90;;;;;;4906046;29;20040;-86
2021/09/03 05:44:57;;;;;;;23.25;9.43;;;13.00;99.90;;;;;;4907466;29;20028;-87
2021/09/03 05:47:22;;;;;;;18.67;9.40;;;13.00;99.90;;;;;;4906395;29;20050;-88
2021/09/03 05:49:48;;;;;;;17.02;9.32;;;13.00;99.90;;;;;;4901512;29;20119;-88
2021/09/03 05:52:14;;;;;;;16.02;9.10;;;13.00;99.90;;;;;;4902183;29;20025;-87
2021/09/03 05:54:39;;;;;;;19.75;9.40;;;13.00;99.90;;;;;;4901129;29;20040;-87
2021/09/03 05:57:05;;;;;;;17.95;9.40;;;13.00;99.90;;;;;;4899575;29;20033;-87
2021/09/03 05:59:32;;;;;;;18.73;8.55;;;13.00;99.90;;;;;;4899488;29;20037;-87
2021/09/03 06:01:58;;;;;;;20.10;9.70;;;13.00;99.90;;;;;;4899087;29;20027;-87
2021/09/03 06:04:24;;;;;;;19.77;9.75;;;13.00;99.90;;;;;;4896925;29;20035;-87
2021/09/03 06:06:49;;;;;;;22.30;10.35;;;13.00;99.90;;;;;;4893646;29;20800;-86
2021/09/03 06:09:15;;;;;;;19.02;10.38;;;13.00;99.90;;;;;;4892501;29;20116;-87
2021/09/03 06:11:41;;;;;;;19.65;10.25;;;13.00;99.90;;;;;;4892683;29;20036;-86
2021/09/03 06:14:07;;;;;;;21.52;9.88;;;13.00;99.90;;;;;;4877094;29;20029;-87
2021/09/03 06:16:33;;;;;;;19.70;10.32;;;13.00;99.90;;;;;;4883103;29;20397;-86
2021/09/03 06:18:59;;;;;;;19.20;10.23;;;13.00;99.90;;;;;;4877255;29;20021;-87
2021/09/03 06:21:24;;;;;;;26.67;10.63;;;13.00;99.90;;;;;;4885336;29;20487;-86
2021/09/03 06:23:50;;;;;;;26.77;10.95;;;13.00;99.90;;;;;;4888212;29;20092;-87
2021/09/03 06:26:16;;;;;;;25.23;11.18;;;13.00;99.90;;;;;;4877280;29;20073;-86
2021/09/03 06:28:42;;;;;;;20.50;10.70;;;13.00;99.90;;;;;;4884668;29;20079;-87
2021/09/03 06:31:07;;;;;;;21.25;11.45;;;13.00;99.90;;;;;;4876891;29;20470;-87
2021/09/03 06:33:33;;;;;;;22.98;11.02;;;13.00;99.90;;;;;;4879494;29;20040;-87
2021/09/03 06:35:59;;;;;;;21.33;10.75;;;13.00;99.90;;;;;;4876537;29;20453;-88
2021/09/03 06:38:26;;;;;;;19.88;10.52;;;13.00;99.90;;;;;;4862011;29;20074;-88
2021/09/03 06:40:52;;;;;;;23.23;11.60;;;13.00;99.90;;;;;;4850173;29;20025;-85
2021/09/03 06:43:18;;;;;;;24.35;11.77;;;13.00;99.90;;;;;;4857903;29;20040;-86
2021/09/03 06:45:43;;;;;;;28.02;12.88;;;13.00;99.90;;;;;;4865998;29;20032;-87
2021/09/03 06:48:09;;;;;;;28.98;12.88;;;13.00;99.90;;;;;;4847567;29;20022;-86
2021/09/03 06:50:35;;;;;;;24.98;12.55;;;13.10;99.90;;;;;;4841828;29;20040;-85
2021/09/03 06:53:00;;;;;;;28.83;12.82;;;13.10;99.90;;;;;;4851651;29;20391;-86
2021/09/03 06:55:26;;;;;;;25.92;12.55;;;13.10;99.90;;;;;;4843219;29;20490;-87
2021/09/03 06:57:52;;;;;;;29.05;12.18;;;13.10;99.90;;;;;;4860316;29;20029;-87
2021/09/03 07:00:17;;;;;;;23.52;11.52;;;13.10;99.90;;;;;;4854802;29;20393;-87
2021/09/03 07:02:43;;;;;;;22.70;11.80;;;13.10;99.90;;;;;;4851652;29;20064;-87
2021/09/03 07:05:11;;;;;;;23.55;11.73;;;13.10;99.90;;;;;;4852685;29;20040;-87
2021/09/03 07:07:37;;;;;;;25.25;11.68;;;13.20;99.90;;;;;;4856465;29;20491;-87
2021/09/03 07:10:04;;;;;;;23.92;11.73;;;13.20;99.90;;;;;;4841692;29;20392;-87
2021/09/03 07:12:29;;;;;;;24.00;10.98;;;13.20;99.90;;;;;;4863650;29;20057;-86
2021/09/03 07:14:55;;;;;;;24.08;11.55;;;13.20;99.90;;;;;;4857890;29;20514;-86
2021/09/03 07:17:21;;;;;;;25.83;11.95;;;13.20;99.90;;;;;;4861149;29;20029;-87
2021/09/03 07:19:47;;;;;;;27.70;12.07;;;13.30;99.90;;;;;;4854851;29;20029;-88
2021/09/03 07:22:12;;;;;;;26.95;12.60;;;13.20;99.90;;;;;;4855310;29;20033;-88
2021/09/03 07:24:38;;;;;;;23.58;12.13;;;13.20;99.90;;;;;;4854574;29;20155;-88
2021/09/03 07:27:04;;;;;;;24.38;12.60;;;13.20;99.90;;;;;;4854659;29;20033;-88
2021/09/03 07:29:30;;;;;;;24.27;12.35;;;13.20;99.90;;;;;;4852569;29;20101;-89
2021/09/03 07:31:56;;;;;;;25.50;13.75;;;13.20;99.90;;;;;;4862662;29;20021;-90
2021/09/03 07:34:22;;;;;;;25.25;13.23;;;13.20;99.90;;;;;;4846163;29;20034;-88
2021/09/03 07:36:47;;;;;;;24.25;12.38;;;13.20;99.90;;;;;;4856682;29;20052;-87
2021/09/03 07:39:18;;;;;;;26.45;14.32;;;13.30;99.90;;;;;;4856612;29;20037;-88
2021/09/03 07:41:45;;;;;;;26.00;14.27;;;13.30;99.90;;;;;;4876621;29;20032;-87
2021/09/03 07:44:10;;;;;;;30.50;13.98;;;13.30;99.90;;;;;;4855278;29;20045;-88
2021/09/03 07:46:36;;;;;;;29.05;15.35;;;13.30;99.90;;;;;;4859616;29;20476;-88
2021/09/03 07:49:03;;;;;;;31.98;15.02;;;13.30;99.90;;;;;;4856523;29;20025;-87
2021/09/03 07:51:31;;;;;;;28.40;15.20;;;13.30;99.90;;;;;;4858185;29;20029;-88
2021/09/03 07:53:56;;;;;;;26.75;14.10;;;13.40;99.90;;;;;;4852073;29;20024;-89
2021/09/03 07:56:22;;;;;;;28.75;14.63;;;13.40;99.90;;;;;;4860462;29;20495;-90
2021/09/03 07:58:47;;;;;;;31.83;15.55;;;13.40;99.90;;;;;;4853759;29;20093;-89
2021/09/03 08:01:13;;;;;;;32.22;15.40;;;13.40;99.90;;;;;;4856973;29;20085;-90
2021/09/03 08:03:39;;;;;;;27.80;13.82;;;13.50;99.90;;;;;;4856122;29;20514;-89
2021/09/03 08:06:04;;;;;;;27.88;13.75;;;13.50;99.90;;;;;;4856206;29;20467;-90
2021/09/03 08:08:30;;;;;;;29.92;13.27;;;13.50;99.90;;;;;;4857840;29;20072;-89
2021/09/03 08:10:56;;;;;;;26.67;12.38;;;13.50;99.90;;;;;;4854742;29;20034;-89
2021/09/03 08:13:22;;;;;;;28.15;14.23;;;13.50;99.90;;;;;;4856388;29;20086;-89
2021/09/03 08:15:47;;;;;;;25.95;13.15;;;13.50;99.90;;;;;;4857100;29;20044;-90
2021/09/03 08:18:13;;;;;;;41.88;14.85;;;13.50;99.90;;;;;;4876792;29;20036;-90
2021/09/03 08:20:39;;;;;;;32.75;13.88;;;13.60;99.90;;;;;;4855416;29;20033;-90
2021/09/03 08:23:05;;;;;;;24.58;13.30;;;13.60;99.90;;;;;;4865376;29;20047;-90
2021/09/03 08:25:31;;;;;;;33.13;14.23;;;13.60;99.90;;;;;;4855845;29;20025;-91
2021/09/03 08:27:57;;;;;;;22.70;11.70;;;13.60;99.90;;;;;;4852546;29;20499;-90
2021/09/03 08:30:23;;;;;;;23.08;12.88;;;13.70;99.90;;;;;;4855377;29;20017;-89
2021/09/03 08:32:49;;;;;;;30.20;13.45;;;13.70;99.90;;;;;;4853653;29;20156;-89
2021/09/03 08:35:15;;;;;;;24.95;12.23;;;13.60;99.90;;;;;;4863295;29;20029;-89
2021/09/03 08:37:41;;;;;;;24.42;12.85;;;13.60;99.90;;;;;;4863926;29;20041;-89
2021/09/03 08:40:10;;;;;;;25.83;13.50;;;13.60;99.90;;;;;;4864789;29;20514;-89
2021/09/03 08:42:37;;;;;;;26.27;12.50;;;13.60;99.90;;;;;;4858319;29;20034;-89
2021/09/03 08:45:05;;;;;;;27.58;13.07;;;13.60;99.90;;;;;;4854831;29;20018;-88
2021/09/03 08:47:32;;;;;;;25.05;13.10;;;13.60;99.90;;;;;;4855632;29;20056;-92
2021/09/03 08:49:58;;;;;;;30.00;13.90;;;13.60;99.90;;;;;;4848711;29;20036;-89
2021/09/03 08:52:23;;;;;;;30.48;15.43;;;13.60;99.90;;;;;;4852985;29;20029;-92
2021/09/03 08:54:49;;;;;;;32.05;15.23;;;13.60;99.90;;;;;;4856002;29;20158;-89
2021/09/03 08:57:15;;;;;;;34.47;15.23;;;13.50;99.90;;;;;;4853921;29;20109;-92
2021/09/03 08:59:41;;;;;;;31.33;14.75;;;13.50;99.90;;;;;;4854513;29;20075;-92
2021/09/03 09:02:18;;;;;;;24.90;12.68;;;13.50;99.90;;;;;;4855117;29;20029;-92
2021/09/03 09:04:51;;;;;;;30.10;15.25;;;13.50;99.90;;;;;;4854146;29;20029;-92
2021/09/03 09:07:17;;;;;;;32.90;16.00;;;13.60;99.90;;;;;;4877038;29;20025;-92
2021/09/03 09:09:47;;;;;;;26.17;14.02;;;13.60;99.90;;;;;;4856514;29;20043;-92
2021/09/03 09:12:16;;;;;;;31.80;13.90;;;13.70;99.90;;;;;;4857921;29;20044;-92
2021/09/03 09:15:08;;;;;;;27.80;14.32;;;13.70;99.90;;;;;;4852698;29;20029;-92
2021/09/03 09:17:42;;;;;;;27.08;12.73;;;13.70;99.90;;;;;;4855834;29;20022;-91
2021/09/03 09:20:10;;;;;;;26.23;13.52;;;13.70;99.90;;;;;;4853073;29;20029;-91
2021/09/03 09:22:53;;;;;;;30.08;14.65;;;13.70;99.90;;;;;;4852137;29;20116;-92
2021/09/03 09:25:31;;;;;;;26.77;13.80;;;13.80;99.90;;;;;;4877270;29;20064;-92
2021/09/03 09:28:17;;;;;;;26.08;13.73;;;13.80;99.90;;;;;;4858936;29;20031;-91
2021/09/03 09:30:44;;;;;;;29.65;14.00;;;13.80;99.90;;;;;;4854233;29;20112;-91
2021/09/03 09:33:17;;;;;;;29.60;14.75;;;13.80;99.90;;;;;;4855360;29;20038;-92
2021/09/03 09:35:48;;;;;;;28.15;14.15;;;13.80;99.90;;;;;;4855552;29;20029;-90
2021/09/03 09:38:23;;;;;;;29.48;15.00;;;13.80;99.90;;;;;;4852815;29;20057;-91
2021/09/03 09:40:55;;;;;;;29.63;15.40;;;13.80;99.90;;;;;;4852689;29;20033;-91
2021/09/03 09:43:35;;;;;;;32.50;15.68;;;13.90;99.90;;;;;;4855251;29;20026;-91
2021/09/03 09:46:07;;;;;;;31.83;15.20;;;13.90;99.90;;;;;;4883020;29;20101;-92
2021/09/03 09:48:33;;;;;;;31.33;15.95;;;13.90;99.90;;;;;;4883665;29;20036;-91
2021/09/03 09:50:59;;;;;;;25.42;14.38;;;14.00;99.90;;;;;;4862752;29;20040;-91
2021/09/03 09:53:27;;;;;;;30.33;16.10;;;14.00;99.90;;;;;;4866425;29;20403;-91
2021/09/03 09:55:53;;;;;;;24.55;13.75;;;14.00;99.90;;;;;;4866716;29;20062;-90
2021/09/03 09:58:19;;;;;;;24.13;12.43;;;14.00;99.90;;;;;;4863671;29;20082;-90
2021/09/03 10:00:46;;;;;;;21.92;12.07;;;14.00;99.90;;;;;;4859995;29;20021;-90
2021/09/03 10:03:12;;;;;;;21.50;10.93;;;14.00;99.90;;;;;;4864155;29;20034;-91
2021/09/03 10:05:39;;;;;;;24.15;11.63;;;14.00;99.90;;;;;;4853382;29;20029;-91
2021/09/03 10:08:07;;;;;;;20.95;11.35;;;14.00;99.90;;;;;;4853690;29;20085;-90
2021/09/03 10:10:33;;;;;;;22.10;12.27;;;14.00;99.90;;;;;;4854569;29;20388;-91
2021/09/03 10:12:58;;;;;;;22.77;12.02;;;14.00;99.90;;;;;;4855413;29;20033;-91
2021/09/03 10:15:25;;;;;;;26.45;13.32;;;14.10;99.90;;;;;;4852415;29;20025;-92
2021/09/03 10:17:51;;;;;;;21.67;11.93;;;14.10;99.90;;;;;;4853437;29;20025;-91
2021/09/03 10:20:17;;;;;;;27.60;12.38;;;14.20;99.90;;;;;;4854049;29;20490;-92
2021/09/03 10:22:44;;;;;;;22.42;12.20;;;14.20;99.90;;;;;;4852154;29;20026;-91
2021/09/03 10:25:10;;;;;;;24.05;11.52;;;14.30;99.90;;;;;;4853670;29;20036;-91
2021/09/03 10:27:38;;;;;;;21.38;12.18;;;14.30;99.90;;;;;;4851494;29;20030;-91
2021/09/03 10:30:16;;;;;;;18.45;11.07;;;14.40;99.90;;;;;;4854236;29;20065;-91
2021/09/03 10:32:42;;;;;;;20.35;11.50;;;14.40;99.90;;;;;;4853974;29;20025;-91
2021/09/03 10:35:17;;;;;;;25.33;12.20;;;14.50;99.90;;;;;;4852040;29;20088;-91
2021/09/03 10:37:43;;;;;;;19.70;11.35;;;14.50;99.90;;;;;;4870715;29;20056;-91
2021/09/03 10:40:13;;;;;;;25.85;13.55;;;14.50;99.90;;;;;;4852600;29;20588;-90
2021/09/03 10:42:43;;;;;;;21.70;12.30;;;14.50;99.90;;;;;;4852245;29;20521;-92
2021/09/03 10:45:34;;;;;;;24.65;13.70;;;14.50;99.90;;;;;;4853334;29;20189;-91
2021/09/03 10:48:04;;;;;;;26.42;15.10;;;14.50;99.90;;;;;;4867630;29;20691;-91
2021/09/03 10:50:41;;;;;;;29.77;15.10;;;14.50;99.90;;;;;;4878240;29;20448;-91
2021/09/03 10:53:12;;;;;;;29.23;15.50;;;14.50;99.90;;;;;;4853591;29;20077;-91
2021/09/03 10:56:09;;;;;;;30.48;16.27;;;14.50;99.90;;;;;;4853843;29;20040;-91
2021/09/03 10:58:41;;;;;;;34.10;16.75;;;14.50;99.90;;;;;;4853789;29;20391;-91
2021/09/03 11:01:10;;;;;;;34.05;17.20;;;14.50;99.90;;;;;;4853875;29;20025;-91
2021/09/03 11:04:15;;;;;;;36.75;17.15;;;14.60;99.90;;;;;;4853044;29;20120;-91
2021/09/03 11:06:54;;;;;;;33.83;17.55;;;14.60;99.90;;;;;;4785281;30;20039;-91
2021/09/03 11:09:25;;;;;;;37.60;17.65;;;14.70;99.90;;;;;;4775076;30;20045;-91
2021/09/03 11:11:57;;;;;;;38.22;17.40;;;14.80;99.90;;;;;;4758846;30;20039;-91
2021/09/03 11:14:30;;;;;;;38.60;18.08;;;14.80;99.90;;;;;;4763668;30;20032;-91
2021/09/03 11:16:59;;;;;;;39.63;18.50;;;14.90;99.90;;;;;;4759634;30;20035;-91
2021/09/03 11:19:40;;;;;;;35.97;16.98;;;15.00;99.90;;;;;;4769604;30;20142;-91
2021/09/03 11:22:08;;;;;;;34.63;17.77;;;15.00;99.90;;;;;;4755321;30;20043;-91
2021/09/03 11:24:39;;;;;;;34.95;18.73;;;15.10;99.90;;;;;;4788429;29;20043;-91
2021/09/03 11:27:18;;;;;;;31.33;16.42;;;15.20;99.90;;;;;;4758853;30;20145;-92
2021/09/03 11:29:58;;;;;;;35.35;17.98;;;15.20;99.90;;;;;;4763063;30;20031;-91
2021/09/03 11:32:26;;;;;;;33.85;17.70;;;15.30;99.90;;;;;;4768449;30;20104;-91
2021/09/03 11:35:12;;;;;;;31.10;17.27;;;15.40;99.90;;;;;;4766974;29;20158;-92
2021/09/03 11:37:46;;;;;;;32.55;17.45;;;15.50;99.90;;;;;;4801889;29;20097;-91
2021/09/03 11:40:15;;;;;;;38.13;18.67;;;15.50;99.90;;;;;;4810964;29;20391;-92
2021/09/03 11:42:45;;;;;;;35.88;17.95;;;15.50;99.90;;;;;;4859572;29;20040;-91
2021/09/03 11:45:17;;;;;;;36.40;18.80;;;15.50;99.90;;;;;;4874282;29;20041;-92
2021/09/03 11:47:47;;;;;;;39.65;18.73;;;15.50;99.90;;;;;;4859193;29;20587;-92
2021/09/03 11:50:17;;;;;;;35.00;17.98;;;15.60;99.90;;;;;;4858883;29;20120;-91
2021/09/03 11:52:44;;;;;;;36.22;18.95;;;15.60;99.90;;;;;;4858260;29;20036;-91
2021/09/03 11:55:17;;;;;;;35.83;17.55;;;15.60;99.90;;;;;;4858910;29;20036;-93
2021/09/03 11:57:55;;;;;;;28.42;16.17;;;15.50;99.90;;;;;;4861327;29;20445;-94
2021/09/03 12:00:26;;;;;;;33.72;17.25;;;15.50;99.90;;;;;;4859355;29;20057;-92
2021/09/03 12:02:53;;;;;;;33.45;17.42;;;15.50;99.90;;;;;;4859794;29;20044;-91
2021/09/03 12:05:19;;;;;;;33.20;17.27;;;15.50;99.90;;;;;;4862200;29;20474;-92
2021/09/03 12:08:04;;;;;;;32.00;17.13;;;15.50;99.90;;;;;;4864535;29;20380;-91
2021/09/03 12:10:32;;;;;;;34.35;16.90;;;15.50;99.90;;;;;;4861555;29;20029;-92
2021/09/03 12:13:14;;;;;;;29.70;15.38;;;15.40;99.90;;;;;;4859883;29;20025;-92
2021/09/03 12:15:42;;;;;;;31.25;14.50;;;15.50;99.90;;;;;;4862008;29;20043;-91
2021/09/03 12:18:32;;;;;;;28.85;14.68;;;15.40;99.90;;;;;;4862114;29;21307;-92
2021/09/03 12:20:59;;;;;;;28.48;15.65;;;15.50;99.90;;;;;;4861106;29;20044;-92
2021/09/03 12:23:31;;;;;;;30.77;16.05;;;15.50;99.90;;;;;;4862617;29;20045;-92
2021/09/03 12:26:08;;;;;;;31.70;15.80;;;15.50;99.90;;;;;;4862996;29;20140;-92
2021/09/03 12:28:34;;;;;;;35.55;17.40;;;15.50;99.90;;;;;;4863547;29;20061;-92
2021/09/03 12:31:06;;;;;;;36.15;16.75;;;15.50;99.90;;;;;;4863810;29;20037;-91
2021/09/03 12:33:32;;;;;;;37.67;18.55;;;15.50;99.90;;;;;;4862968;29;20028;-93